createdAt,value
2019-01-08T00:01:11.904Z,86.24
2019-01-08T00:03:38.988Z,86.32
2019-01-08T00:06:06.109Z,86.22
2019-01-08T00:08:33.305Z,86.15
2019-01-08T00:11:00.505Z,86.11
2019-01-08T00:13:27.707Z,85.73
2019-01-08T00:15:54.896Z,85.16
2019-01-08T00:18:22.081Z,84.97
2019-01-08T00:20:49.181Z,85.12
2019-01-08T00:23:17.169Z,85.19
2019-01-08T00:25:44.323Z,85.15
2019-01-08T00:28:11.531Z,85.04
2019-01-08T00:30:38.956Z,85.39
2019-01-08T00:33:06.115Z,85.34
2019-01-08T00:35:33.548Z,85.08
2019-01-08T00:38:00.753Z,84.97
2019-01-08T00:40:27.835Z,84.81
2019-01-08T00:42:55.095Z,85.06
2019-01-08T00:45:22.176Z,85.11
2019-01-08T00:47:49.277Z,85.23
2019-01-08T00:50:16.784Z,85.75
2019-01-08T00:52:44.010Z,86.20
2019-01-08T00:55:11.191Z,86.20
2019-01-08T00:57:38.821Z,86.23
2019-01-08T01:00:07.357Z,86.24
2019-01-08T01:02:34.560Z,85.60
2019-01-08T01:05:01.769Z,85.10
2019-01-08T01:07:28.962Z,84.60
2019-01-08T01:09:56.480Z,84.86
2019-01-08T01:12:24.597Z,85.43
2019-01-08T01:14:51.743Z,85.95
2019-01-08T01:17:18.968Z,86.28
2019-01-08T01:19:46.187Z,86.51
2019-01-08T01:22:13.267Z,85.65
2019-01-08T01:24:40.442Z,85.07
2019-01-08T01:27:07.537Z,85.32
2019-01-08T01:29:34.706Z,85.14
2019-01-08T01:32:01.932Z,84.65
2019-01-08T01:34:29.706Z,83.52
2019-01-08T01:36:56.874Z,83.66
2019-01-08T01:39:24.367Z,83.84
2019-01-08T01:41:51.547Z,83.59
2019-01-08T01:44:18.700Z,83.85
2019-01-08T01:46:46.189Z,83.79
2019-01-08T01:49:13.383Z,84.10
2019-01-08T01:51:40.567Z,84.38
2019-01-08T01:54:08.012Z,84.06
2019-01-08T01:56:35.220Z,84.42
2019-01-08T01:59:08.388Z,84.76
2019-01-08T02:01:31.799Z,84.79
2019-01-08T02:03:59.113Z,84.32
2019-01-08T02:06:26.310Z,84.26
2019-01-08T02:08:53.414Z,84.40
2019-01-08T02:11:20.651Z,84.63
2019-01-08T02:13:47.835Z,84.92
2019-01-08T02:16:15.320Z,85.57
2019-01-08T02:18:42.510Z,85.73
2019-01-08T02:21:09.574Z,85.70
2019-01-08T02:23:36.762Z,85.80
2019-01-08T02:26:03.958Z,85.33
2019-01-08T02:28:31.549Z,84.69
2019-01-08T02:30:58.821Z,84.86
2019-01-08T02:33:26.051Z,85.17
2019-01-08T02:35:53.128Z,85.29
2019-01-08T02:38:20.298Z,85.46
2019-01-08T02:40:47.491Z,85.55
2019-01-08T02:43:14.697Z,85.14
2019-01-08T02:45:41.773Z,85.18
2019-01-08T02:48:08.957Z,84.90
2019-01-08T02:50:36.329Z,84.98
2019-01-08T02:53:03.523Z,85.12
2019-01-08T02:55:33.778Z,85.17
2019-01-08T02:58:01.611Z,85.26
2019-01-08T03:00:28.787Z,85.32
2019-01-08T03:02:55.947Z,85.42
2019-01-08T03:05:23.163Z,85.43
2019-01-08T03:07:50.323Z,85.37
2019-01-08T03:10:17.541Z,85.58
2019-01-08T03:12:44.703Z,85.83
2019-01-08T03:15:11.891Z,86.07
2019-01-08T03:17:39.091Z,85.98
2019-01-08T03:20:06.277Z,85.83
2019-01-08T03:22:33.448Z,85.25
2019-01-08T03:25:00.660Z,85.39
2019-01-08T03:27:27.811Z,85.95
2019-01-08T03:29:55.002Z,86.34
2019-01-08T03:32:22.086Z,86.33
2019-01-08T03:34:49.239Z,86.60
2019-01-08T03:37:16.390Z,86.38
2019-01-08T03:39:43.641Z,85.69
2019-01-08T03:42:10.932Z,86.05
2019-01-08T03:44:38.090Z,86.35
2019-01-08T03:47:05.324Z,86.28
2019-01-08T03:49:32.496Z,86.08
2019-01-08T03:51:59.677Z,85.93
2019-01-08T03:54:26.849Z,86.23
2019-01-08T03:56:54.017Z,86.45
2019-01-08T03:59:21.173Z,85.98
2019-01-08T04:01:48.409Z,85.76
2019-01-08T04:04:15.565Z,86.05
2019-01-08T04:06:43.021Z,85.83
2019-01-08T04:09:10.145Z,85.71
2019-01-08T04:11:37.345Z,86.01
2019-01-08T04:14:04.427Z,86.47
2019-01-08T04:16:32.009Z,86.89
2019-01-08T04:18:59.271Z,86.84
2019-01-08T04:21:26.453Z,86.98
2019-01-08T04:23:53.756Z,87.11
2019-01-08T04:26:21.074Z,87.33
2019-01-08T04:28:48.257Z,87.52
2019-01-08T04:31:16.885Z,87.50
2019-01-08T04:33:44.144Z,87.55
2019-01-08T04:36:11.324Z,87.64
2019-01-08T04:38:38.505Z,87.65
2019-01-08T04:41:05.702Z,87.59
2019-01-08T04:43:33.182Z,87.13
2019-01-08T04:46:00.391Z,86.72
2019-01-08T04:48:28.154Z,86.13
2019-01-08T04:50:55.230Z,85.86
2019-01-08T04:53:22.414Z,85.43
2019-01-08T04:55:49.509Z,84.52
2019-01-08T04:58:16.709Z,84.08
2019-01-08T05:00:43.913Z,83.83
2019-01-08T05:03:11.070Z,82.69
2019-01-08T05:05:38.148Z,82.21
2019-01-08T05:08:06.110Z,81.61
2019-01-08T05:10:33.561Z,81.29
2019-01-08T05:13:00.739Z,80.65
2019-01-08T05:15:28.229Z,79.86
2019-01-08T05:17:55.614Z,80.22
2019-01-08T05:20:23.066Z,80.50
2019-01-08T05:22:50.579Z,80.37
2019-01-08T05:25:17.982Z,80.62
2019-01-08T05:27:45.997Z,80.86
2019-01-08T05:30:13.452Z,81.20
2019-01-08T05:32:40.500Z,81.34
2019-01-08T05:35:07.663Z,81.54
2019-01-08T05:37:34.799Z,81.58
2019-01-08T05:40:02.020Z,81.56
2019-01-08T05:42:29.181Z,81.20
2019-01-08T05:44:56.386Z,81.00
2019-01-08T05:47:23.733Z,80.53
2019-01-08T05:49:50.896Z,80.52
2019-01-08T05:52:18.107Z,80.79
2019-01-08T05:54:45.299Z,80.43
2019-01-08T05:57:12.474Z,80.42
2019-01-08T05:59:39.708Z,80.56
2019-01-08T06:02:06.865Z,80.29
2019-01-08T06:04:34.029Z,79.93
2019-01-08T06:07:01.216Z,79.98
2019-01-08T06:09:28.409Z,79.30
2019-01-08T06:11:55.642Z,78.87
2019-01-08T06:14:22.731Z,78.16
2019-01-08T06:16:49.925Z,76.35
2019-01-08T06:19:17.045Z,76.05
2019-01-08T06:21:44.250Z,76.17
2019-01-08T06:24:11.731Z,76.08
2019-01-08T06:26:39.223Z,75.32
2019-01-08T06:29:06.401Z,75.41
2019-01-08T06:31:33.833Z,75.35
2019-01-08T06:34:01.014Z,75.84
2019-01-08T06:36:28.242Z,75.87
2019-01-08T06:38:55.389Z,75.39
2019-01-08T06:41:22.573Z,75.81
2019-01-08T06:43:49.785Z,75.67
2019-01-08T06:46:16.949Z,75.87
2019-01-08T06:48:44.110Z,76.74
2019-01-08T06:51:11.324Z,77.31
2019-01-08T06:53:38.484Z,77.79
2019-01-08T06:56:05.544Z,77.96
2019-01-08T06:58:32.759Z,78.39
2019-01-08T07:00:59.815Z,79.22
2019-01-08T07:03:26.869Z,79.84
2019-01-08T07:05:53.990Z,80.19
2019-01-08T07:08:21.188Z,80.57
2019-01-08T07:10:48.374Z,80.02
2019-01-08T07:13:15.584Z,78.54
2019-01-08T07:15:42.767Z,79.21
2019-01-08T07:18:10.128Z,80.71
2019-01-08T07:20:37.266Z,81.08
2019-01-08T07:23:04.418Z,81.34
2019-01-08T07:25:31.599Z,81.88
2019-01-08T07:27:59.144Z,82.13
2019-01-08T07:30:26.624Z,81.78
2019-01-08T07:32:54.355Z,81.73
2019-01-08T07:35:21.567Z,81.99
2019-01-08T07:37:48.619Z,81.22
2019-01-08T07:40:15.972Z,80.92
2019-01-08T07:42:43.088Z,81.23
2019-01-08T07:45:10.553Z,81.32
2019-01-08T07:47:37.609Z,80.39
2019-01-08T07:50:05.992Z,79.27
2019-01-08T07:52:33.454Z,78.45
2019-01-08T07:55:00.625Z,78.47
2019-01-08T07:57:27.850Z,78.09
2019-01-08T07:59:55.005Z,78.60
2019-01-08T08:02:22.760Z,77.82
2019-01-08T08:04:50.018Z,77.34
2019-01-08T08:07:17.199Z,75.85
2019-01-08T08:09:44.361Z,75.76
2019-01-08T08:12:11.624Z,76.20
2019-01-08T08:14:38.786Z,76.96
2019-01-08T08:17:05.970Z,77.19
2019-01-08T08:19:33.366Z,76.59
2019-01-08T08:22:00.821Z,77.07
2019-01-08T08:24:27.869Z,77.27
2019-01-08T08:26:55.077Z,77.53
2019-01-08T08:29:22.237Z,77.14
2019-01-08T08:31:49.643Z,77.41
2019-01-08T08:34:16.819Z,75.34
2019-01-08T08:36:43.978Z,76.07
2019-01-08T08:39:11.147Z,74.80
2019-01-08T08:41:38.343Z,73.96
2019-01-08T08:44:05.497Z,74.41
2019-01-08T08:46:32.651Z,74.91
2019-01-08T08:48:59.836Z,73.68
2019-01-08T08:51:27.045Z,74.24
2019-01-08T08:53:54.219Z,74.99
2019-01-08T08:56:21.437Z,74.60
2019-01-08T08:58:48.644Z,73.79
2019-01-08T09:01:15.704Z,73.97
2019-01-08T09:03:43.078Z,73.48
2019-01-08T09:06:10.265Z,72.75
2019-01-08T09:08:37.419Z,72.96
2019-01-08T09:11:04.653Z,72.32
2019-01-08T09:13:31.814Z,72.46
2019-01-08T09:15:59.041Z,72.54
2019-01-08T09:18:26.213Z,71.99
2019-01-08T09:20:53.331Z,72.03
2019-01-08T09:23:20.515Z,71.83
2019-01-08T09:25:47.720Z,71.55
2019-01-08T09:28:15.211Z,71.60
2019-01-08T09:30:42.409Z,70.59
2019-01-08T09:33:09.517Z,71.17
2019-01-08T09:35:36.584Z,72.52
2019-01-08T09:38:04.131Z,72.91
2019-01-08T09:40:31.315Z,73.58
2019-01-08T09:42:58.410Z,73.22
2019-01-08T09:45:25.579Z,73.21
2019-01-08T09:47:52.672Z,71.65
2019-01-08T09:50:19.829Z,71.60
2019-01-08T09:52:47.321Z,72.06
2019-01-08T09:55:14.541Z,70.69
2019-01-08T09:57:41.713Z,71.19
2019-01-08T10:00:09.000Z,71.44
2019-01-08T10:02:36.239Z,71.54
2019-01-08T10:05:03.529Z,71.04
2019-01-08T10:07:30.699Z,71.33
2019-01-08T10:09:57.927Z,71.42
2019-01-08T10:12:25.100Z,71.37
2019-01-08T10:14:52.577Z,71.23
2019-01-08T10:17:19.797Z,71.11
2019-01-08T10:19:46.978Z,71.04
2019-01-08T10:22:14.414Z,70.63
2019-01-08T10:24:41.515Z,70.57
2019-01-08T10:27:08.728Z,71.37
2019-01-08T10:29:35.798Z,71.52
2019-01-08T10:32:03.059Z,70.59
2019-01-08T10:34:30.198Z,70.49
2019-01-08T10:36:57.376Z,69.49
2019-01-08T10:39:24.559Z,69.12
2019-01-08T10:41:51.750Z,68.01
2019-01-08T10:44:19.212Z,67.44
2019-01-08T10:46:46.453Z,68.08
2019-01-08T10:49:13.613Z,67.14
2019-01-08T10:51:40.812Z,66.79
2019-01-08T10:54:08.028Z,66.46
2019-01-08T10:56:35.238Z,67.33
2019-01-08T10:59:07.573Z,67.55
2019-01-08T11:01:31.848Z,68.75
2019-01-08T11:03:59.026Z,69.29
2019-01-08T11:06:26.232Z,69.75
2019-01-08T11:08:53.445Z,70.36
2019-01-08T11:11:20.501Z,70.88
2019-01-08T11:13:47.707Z,71.77
2019-01-08T11:16:14.901Z,71.97
2019-01-08T11:18:42.070Z,71.70
2019-01-08T11:21:09.269Z,72.81
2019-01-08T11:23:36.613Z,72.35
2019-01-08T11:26:03.786Z,72.36
2019-01-08T11:28:31.252Z,73.08
2019-01-08T11:30:58.456Z,73.42
2019-01-08T11:33:25.617Z,73.75
2019-01-08T11:35:52.785Z,73.49
2019-01-08T11:38:20.012Z,73.35
2019-01-08T11:40:47.173Z,72.82
2019-01-08T11:43:14.931Z,72.56
2019-01-08T11:45:42.165Z,72.77
2019-01-08T11:48:09.536Z,72.44
2019-01-08T11:50:36.602Z,72.38
2019-01-08T11:53:04.029Z,72.75
2019-01-08T11:55:31.191Z,71.89
2019-01-08T11:57:58.368Z,71.28
2019-01-08T12:00:25.590Z,71.61
2019-01-08T12:02:52.774Z,71.33
2019-01-08T12:05:20.188Z,72.24
2019-01-08T12:07:47.412Z,73.09
2019-01-08T12:10:14.555Z,73.68
2019-01-08T12:12:41.772Z,73.12
2019-01-08T12:15:08.978Z,73.86
2019-01-08T12:17:36.184Z,73.62
2019-01-08T12:20:04.368Z,73.22
2019-01-08T12:22:31.599Z,73.67
2019-01-08T12:24:58.766Z,73.75
2019-01-08T12:27:25.955Z,73.95
2019-01-08T12:29:53.373Z,74.31
2019-01-08T12:32:20.566Z,74.41
2019-01-08T12:34:47.670Z,74.25
2019-01-08T12:37:14.865Z,74.72
2019-01-08T12:39:42.066Z,74.94
2019-01-08T12:42:09.236Z,75.12
2019-01-08T12:44:36.439Z,74.82
2019-01-08T12:47:03.926Z,74.55
2019-01-08T12:49:31.111Z,74.98
2019-01-08T12:51:58.323Z,75.72
2019-01-08T12:54:25.500Z,75.90
2019-01-08T12:56:52.694Z,75.87
2019-01-08T12:59:20.312Z,75.88
2019-01-08T13:01:47.504Z,76.01
2019-01-08T13:04:14.678Z,76.08
2019-01-08T13:06:43.676Z,75.77
2019-01-08T13:09:10.883Z,75.45
2019-01-08T13:11:37.947Z,75.99
2019-01-08T13:14:05.127Z,75.66
2019-01-08T13:16:32.209Z,75.37
2019-01-08T13:18:59.685Z,74.81
2019-01-08T13:21:26.899Z,75.13
2019-01-08T13:23:54.075Z,75.97
2019-01-08T13:26:21.294Z,75.97
2019-01-08T13:28:48.777Z,76.04
2019-01-08T13:31:15.997Z,76.22
2019-01-08T13:33:43.196Z,75.97
2019-01-08T13:36:10.418Z,74.71
2019-01-08T13:38:38.029Z,74.45
2019-01-08T13:41:05.239Z,74.47
2019-01-08T13:43:32.466Z,74.83
2019-01-08T13:45:59.626Z,74.77
2019-01-08T13:48:26.812Z,73.89
2019-01-08T13:50:54.164Z,73.59
2019-01-08T13:53:21.254Z,73.13
2019-01-08T13:55:48.473Z,73.23
2019-01-08T13:58:15.697Z,73.03
2019-01-08T14:00:42.866Z,72.36
2019-01-08T14:03:10.374Z,72.34
2019-01-08T14:05:37.470Z,71.76
2019-01-08T14:08:04.656Z,71.51
2019-01-08T14:10:31.956Z,69.57
2019-01-08T14:12:59.155Z,68.60
2019-01-08T14:15:26.336Z,68.28
2019-01-08T14:17:53.710Z,69.16
2019-01-08T14:20:20.922Z,69.54
2019-01-08T14:22:48.082Z,69.75
2019-01-08T14:25:15.275Z,69.60
2019-01-08T14:27:42.473Z,68.48
2019-01-08T14:30:09.782Z,68.57
2019-01-08T14:32:40.686Z,67.94
2019-01-08T14:35:06.140Z,67.98
2019-01-08T14:37:33.416Z,68.70
2019-01-08T14:40:00.870Z,68.77
2019-01-08T14:42:28.106Z,69.20
2019-01-08T14:44:55.272Z,69.49
2019-01-08T14:47:22.738Z,69.00
2019-01-08T14:49:49.958Z,69.34
2019-01-08T14:52:17.476Z,68.75
2019-01-08T14:54:45.140Z,68.17
2019-01-08T14:57:12.358Z,67.28
2019-01-08T14:59:39.550Z,67.34
2019-01-08T15:02:06.712Z,67.13
2019-01-08T15:04:33.915Z,67.48
2019-01-08T15:07:01.077Z,68.92
2019-01-08T15:09:28.371Z,69.13
2019-01-08T15:11:55.649Z,69.06
2019-01-08T15:14:22.895Z,69.50
2019-01-08T15:16:50.563Z,69.17
2019-01-08T15:19:18.860Z,69.44
2019-01-08T15:21:45.967Z,69.28
2019-01-08T15:24:13.130Z,69.96
2019-01-08T15:26:40.345Z,69.38
2019-01-08T15:29:07.539Z,69.78
2019-01-08T15:31:34.745Z,70.06
2019-01-08T15:34:01.948Z,69.35
2019-01-08T15:36:29.447Z,69.60
2019-01-08T15:38:56.615Z,70.89
2019-01-08T15:41:23.842Z,71.41
2019-01-08T15:43:51.343Z,71.75
2019-01-08T15:46:18.548Z,71.43
2019-01-08T15:48:45.761Z,71.46
2019-01-08T15:51:13.287Z,71.19
2019-01-08T15:53:40.457Z,70.90
2019-01-08T15:56:07.978Z,71.88
2019-01-08T15:58:35.037Z,72.27
2019-01-08T16:01:02.243Z,71.62
2019-01-08T16:03:29.920Z,70.50
2019-01-08T16:05:57.017Z,68.99
2019-01-08T16:08:24.238Z,66.99
2019-01-08T16:10:51.481Z,67.31
2019-01-08T16:13:18.624Z,66.80
2019-01-08T16:15:46.034Z,67.18
2019-01-08T16:18:13.251Z,67.18
2019-01-08T16:20:40.308Z,67.28
2019-01-08T16:23:07.518Z,66.64
2019-01-08T16:25:34.735Z,66.65
2019-01-08T16:28:01.995Z,67.25
2019-01-08T16:30:29.204Z,67.06
2019-01-08T16:32:56.417Z,68.21
2019-01-08T16:35:23.686Z,68.09
2019-01-08T16:37:50.889Z,68.10
2019-01-08T16:40:18.002Z,66.64
2019-01-08T16:42:45.175Z,66.13
2019-01-08T16:45:12.513Z,66.30
2019-01-08T16:47:39.629Z,67.16
2019-01-08T16:50:06.965Z,67.79
2019-01-08T16:52:34.116Z,67.80
2019-01-08T16:55:01.323Z,67.92
2019-01-08T16:57:28.511Z,68.17
2019-01-08T16:59:56.813Z,68.45
2019-01-08T17:02:24.336Z,68.24
2019-01-08T17:04:51.505Z,68.34
2019-01-08T17:07:18.758Z,67.61
2019-01-08T17:09:46.068Z,67.48
2019-01-08T17:12:13.209Z,67.41
2019-01-08T17:14:40.509Z,66.69
2019-01-08T17:17:07.716Z,67.20
2019-01-08T17:19:34.930Z,66.84
2019-01-08T17:22:02.019Z,67.60
2019-01-08T17:24:29.221Z,68.22
2019-01-08T17:26:56.279Z,69.19
2019-01-08T17:29:23.789Z,69.57
2019-01-08T17:31:50.993Z,71.45
2019-01-08T17:34:18.179Z,73.53
2019-01-08T17:36:45.415Z,74.96
2019-01-08T17:39:12.611Z,75.53
2019-01-08T17:41:39.780Z,76.71
2019-01-08T17:44:07.028Z,77.08
2019-01-08T17:46:34.650Z,78.21
2019-01-08T17:49:01.836Z,78.45
2019-01-08T17:51:29.353Z,78.85
2019-01-08T17:53:56.559Z,79.32
2019-01-08T17:56:23.751Z,79.12
2019-01-08T17:59:11.935Z,79.61
2019-01-08T18:01:52.330Z,80.28
2019-01-08T18:04:19.514Z,80.53
2019-01-08T18:06:46.727Z,80.52
2019-01-08T18:09:13.907Z,80.10
2019-01-08T18:11:41.148Z,79.94
2019-01-08T18:14:08.231Z,78.89
2019-01-08T18:16:35.660Z,78.09
2019-01-08T18:19:02.755Z,78.26
2019-01-08T18:21:29.992Z,77.70
2019-01-08T18:23:57.168Z,77.23
2019-01-08T18:26:24.396Z,77.41
2019-01-08T18:28:51.573Z,76.05
2019-01-08T18:31:18.772Z,76.02
2019-01-08T18:33:51.375Z,76.42
2019-01-08T18:36:15.071Z,75.15
2019-01-08T18:38:42.289Z,74.77
2019-01-08T18:41:09.846Z,73.71
2019-01-08T18:43:37.376Z,72.85
2019-01-08T18:46:04.894Z,71.56
2019-01-08T18:48:32.107Z,71.09
2019-01-08T18:50:59.316Z,70.36
2019-01-08T18:53:26.538Z,69.71
2019-01-08T18:55:53.628Z,69.56
2019-01-08T18:58:20.826Z,69.64
2019-01-08T19:00:47.911Z,69.58
2019-01-08T19:03:15.124Z,69.36
2019-01-08T19:05:42.225Z,69.37
2019-01-08T19:08:09.836Z,70.38
2019-01-08T19:10:37.040Z,71.23
2019-01-08T19:13:04.302Z,72.15
2019-01-08T19:15:31.791Z,72.17
2019-01-08T19:17:58.934Z,72.50
2019-01-08T19:20:26.116Z,73.59
2019-01-08T19:22:53.450Z,72.90
2019-01-08T19:25:20.664Z,72.68
2019-01-08T19:27:47.854Z,73.26
2019-01-08T19:30:15.075Z,73.53
2019-01-08T19:32:42.671Z,74.17
2019-01-08T19:35:09.868Z,75.20
2019-01-08T19:37:36.970Z,75.36
2019-01-08T19:40:04.799Z,74.22
2019-01-08T19:42:31.887Z,74.64
2019-01-08T19:44:59.073Z,74.96
2019-01-08T19:47:26.574Z,74.45
2019-01-08T19:49:54.330Z,74.48
2019-01-08T19:52:21.530Z,73.42
2019-01-08T19:54:48.764Z,73.12
2019-01-08T19:57:16.319Z,72.41
2019-01-08T19:59:43.515Z,71.35
2019-01-08T20:02:11.030Z,69.79
2019-01-08T20:04:38.202Z,69.25
2019-01-08T20:07:05.402Z,69.38
2019-01-08T20:09:32.619Z,69.21
2019-01-08T20:12:00.088Z,68.71
2019-01-08T20:14:28.285Z,67.87
2019-01-08T20:16:55.656Z,67.82
2019-01-08T20:19:22.720Z,68.93
2019-01-08T20:21:50.249Z,67.84
2019-01-08T20:24:17.349Z,67.74
2019-01-08T20:26:47.547Z,67.41
2019-01-08T20:29:14.752Z,66.86
2019-01-08T20:31:43.387Z,66.97
2019-01-08T20:34:10.588Z,67.27
2019-01-08T20:36:37.985Z,68.01
2019-01-08T20:39:08.844Z,68.46
2019-01-08T20:41:36.100Z,68.19
2019-01-08T20:44:03.712Z,68.41
2019-01-08T20:46:30.941Z,68.23
2019-01-08T20:48:58.120Z,68.11
2019-01-08T20:51:25.303Z,68.67
2019-01-08T20:53:52.547Z,69.97
2019-01-08T20:56:19.723Z,69.74
2019-01-08T20:58:47.960Z,69.85
2019-01-08T21:01:15.423Z,70.12
2019-01-08T21:03:42.654Z,70.24
2019-01-08T21:06:10.064Z,70.81
2019-01-08T21:08:37.282Z,71.40
2019-01-08T21:11:06.125Z,71.76
2019-01-08T21:13:33.533Z,72.95
2019-01-08T21:16:01.040Z,73.60
2019-01-08T21:18:28.792Z,73.67
2019-01-08T21:20:56.212Z,74.22
2019-01-08T21:23:23.433Z,75.05
2019-01-08T21:25:50.616Z,75.09
2019-01-08T21:28:18.122Z,74.30
2019-01-08T21:30:45.333Z,74.87
2019-01-08T21:33:12.514Z,75.62
2019-01-08T21:35:39.904Z,75.98
2019-01-08T21:38:07.153Z,76.30
2019-01-08T21:40:34.603Z,76.55
2019-01-08T21:43:02.004Z,76.51
2019-01-08T21:45:29.298Z,76.90
2019-01-08T21:47:56.368Z,77.34
2019-01-08T21:50:23.769Z,77.37
2019-01-08T21:52:51.012Z,77.00
2019-01-08T21:55:18.183Z,77.36
2019-01-08T21:57:45.396Z,77.70
2019-01-08T22:00:12.596Z,77.70
2019-01-08T22:02:39.797Z,77.34
2019-01-08T22:05:06.992Z,77.20
2019-01-08T22:07:34.299Z,76.47
2019-01-08T22:10:01.483Z,76.07
2019-01-08T22:12:28.964Z,74.91
2019-01-08T22:14:56.212Z,74.52
2019-01-08T22:17:23.677Z,74.67
2019-01-08T22:19:50.877Z,74.56
2019-01-08T22:22:18.413Z,73.76
2019-01-08T22:24:45.631Z,73.98
2019-01-08T22:27:12.827Z,73.83
2019-01-08T22:29:39.948Z,73.08
2019-01-08T22:32:07.123Z,72.42
2019-01-08T22:34:34.379Z,73.20
2019-01-08T22:37:02.383Z,73.12
2019-01-08T22:39:29.892Z,72.99
2019-01-08T22:41:57.403Z,72.82
2019-01-08T22:44:24.654Z,73.57
2019-01-08T22:46:51.926Z,73.53
2019-01-08T22:49:19.439Z,73.88
2019-01-08T22:51:46.662Z,74.59
2019-01-08T22:54:13.862Z,75.40
2019-01-08T22:56:41.352Z,75.12
2019-01-08T22:59:08.840Z,75.42
2019-01-08T23:01:43.763Z,75.46
2019-01-08T23:04:11.595Z,74.79
2019-01-08T23:06:39.094Z,74.87
2019-01-08T23:09:07.125Z,74.92
2019-01-08T23:11:34.236Z,73.89
2019-01-08T23:14:01.830Z,72.97
2019-01-08T23:16:28.917Z,73.79
2019-01-08T23:18:56.122Z,74.29
2019-01-08T23:21:23.286Z,74.45
2019-01-08T23:23:50.494Z,74.92
2019-01-08T23:26:17.742Z,75.46
2019-01-08T23:28:44.991Z,74.92
2019-01-08T23:31:12.186Z,75.15
2019-01-08T23:33:39.384Z,74.00
2019-01-08T23:36:06.505Z,73.86
2019-01-08T23:38:34.039Z,74.13
2019-01-08T23:41:01.558Z,73.97
2019-01-08T23:43:28.925Z,73.66
2019-01-08T23:45:56.106Z,73.09
2019-01-08T23:48:23.643Z,73.06
2019-01-08T23:50:50.689Z,72.46
2019-01-08T23:53:27.848Z,72.36
2019-01-08T23:55:58.114Z,71.63
2019-01-08T23:58:25.182Z,72.00
